sensor_id;sensor_type;location;lat;lon;timestamp;P1;durP1;ratioP1;P2;durP2;ratioP2
3601;SDS011;1815;50.950;6.920;2024-02-15T00:02:22;4.80;;;1.47;;
3601;SDS011;1815;50.950;6.920;2024-02-15T00:04:48;2.80;;;1.30;;
3601;SDS011;1815;50.950;6.920;2024-02-15T00:07:13;5.33;;;1.53;;
3601;SDS011;1815;50.950;6.920;2024-02-15T00:09:39;2.80;;;1.40;;
3601;SDS011;1815;50.950;6.920;2024-02-15T00:12:05;2.50;;;1.60;;
3601;SDS011;1815;50.950;6.920;2024-02-15T00:14:31;3.50;;;1.87;;
3601;SDS011;1815;50.950;6.920;2024-02-15T00:16:57;3.30;;;1.40;;
3601;SDS011;1815;50.950;6.920;2024-02-15T00:19:23;3.77;;;1.50;;
3601;SDS011;1815;50.950;6.920;2024-02-15T00:21:49;3.40;;;1.50;;
3601;SDS011;1815;50.950;6.920;2024-02-15T00:24:15;2.60;;;1.70;;
3601;SDS011;1815;50.950;6.920;2024-02-15T00:26:40;1.80;;;1.37;;
3601;SDS011;1815;50.950;6.920;2024-02-15T00:29:09;3.70;;;1.50;;
3601;SDS011;1815;50.950;6.920;2024-02-15T00:31:35;2.27;;;1.50;;
3601;SDS011;1815;50.950;6.920;2024-02-15T00:34:01;3.40;;;1.20;;
3601;SDS011;1815;50.950;6.920;2024-02-15T00:36:30;3.63;;;1.30;;
3601;SDS011;1815;50.950;6.920;2024-02-15T00:38:55;4.10;;;2.20;;
3601;SDS011;1815;50.950;6.920;2024-02-15T00:41:21;2.83;;;1.63;;
3601;SDS011;1815;50.950;6.920;2024-02-15T00:43:47;6.47;;;1.97;;
3601;SDS011;1815;50.950;6.920;2024-02-15T00:46:13;2.43;;;1.60;;
3601;SDS011;1815;50.950;6.920;2024-02-15T00:48:39;2.97;;;1.20;;
3601;SDS011;1815;50.950;6.920;2024-02-15T00:51:05;5.50;;;1.27;;
3601;SDS011;1815;50.950;6.920;2024-02-15T00:53:31;5.00;;;1.93;;
3601;SDS011;1815;50.950;6.920;2024-02-15T00:55:57;2.20;;;1.23;;
3601;SDS011;1815;50.950;6.920;2024-02-15T00:58:23;3.47;;;1.60;;
3601;SDS011;1815;50.950;6.920;2024-02-15T01:00:49;4.27;;;1.73;;
3601;SDS011;1815;50.950;6.920;2024-02-15T01:03:15;4.23;;;1.53;;
3601;SDS011;1815;50.950;6.920;2024-02-15T01:05:41;6.03;;;2.17;;
3601;SDS011;1815;50.950;6.920;2024-02-15T01:08:07;4.13;;;1.63;;
3601;SDS011;1815;50.950;6.920;2024-02-15T01:10:34;6.10;;;2.00;;
3601;SDS011;1815;50.950;6.920;2024-02-15T01:13:00;3.40;;;1.87;;
3601;SDS011;1815;50.950;6.920;2024-02-15T01:15:26;3.03;;;2.33;;
3601;SDS011;1815;50.950;6.920;2024-02-15T01:17:52;3.17;;;1.53;;
3601;SDS011;1815;50.950;6.920;2024-02-15T01:20:17;5.17;;;1.60;;
3601;SDS011;1815;50.950;6.920;2024-02-15T01:22:43;5.60;;;3.07;;
3601;SDS011;1815;50.950;6.920;2024-02-15T01:25:09;3.77;;;1.40;;
3601;SDS011;1815;50.950;6.920;2024-02-15T01:27:36;4.23;;;1.40;;
3601;SDS011;1815;50.950;6.920;2024-02-15T01:30:03;1.90;;;1.13;;
3601;SDS011;1815;50.950;6.920;2024-02-15T01:32:29;6.20;;;1.47;;
3601;SDS011;1815;50.950;6.920;2024-02-15T01:34:56;4.10;;;1.43;;
3601;SDS011;1815;50.950;6.920;2024-02-15T01:37:22;6.47;;;1.57;;
3601;SDS011;1815;50.950;6.920;2024-02-15T01:39:48;3.00;;;1.10;;
3601;SDS011;1815;50.950;6.920;2024-02-15T01:42:15;3.13;;;1.20;;
3601;SDS011;1815;50.950;6.920;2024-02-15T01:44:40;2.27;;;1.37;;
3601;SDS011;1815;50.950;6.920;2024-02-15T01:47:09;2.43;;;1.27;;
3601;SDS011;1815;50.950;6.920;2024-02-15T01:49:36;3.07;;;1.10;;
3601;SDS011;1815;50.950;6.920;2024-02-15T01:52:02;2.60;;;1.30;;
3601;SDS011;1815;50.950;6.920;2024-02-15T01:54:30;2.57;;;1.10;;
3601;SDS011;1815;50.950;6.920;2024-02-15T01:56:57;2.20;;;1.20;;
3601;SDS011;1815;50.950;6.920;2024-02-15T01:59:23;1.93;;;1.13;;
3601;SDS011;1815;50.950;6.920;2024-02-15T02:01:50;3.30;;;1.10;;
3601;SDS011;1815;50.950;6.920;2024-02-15T02:04:16;3.10;;;1.20;;
3601;SDS011;1815;50.950;6.920;2024-02-15T02:06:42;3.43;;;1.10;;
3601;SDS011;1815;50.950;6.920;2024-02-15T02:09:11;3.30;;;1.00;;
3601;SDS011;1815;50.950;6.920;2024-02-15T02:11:41;1.90;;;1.13;;
3601;SDS011;1815;50.950;6.920;2024-02-15T02:14:10;1.93;;;1.10;;
3601;SDS011;1815;50.950;6.920;2024-02-15T02:16:36;2.03;;;1.00;;
3601;SDS011;1815;50.950;6.920;2024-02-15T02:19:04;3.90;;;1.50;;
3601;SDS011;1815;50.950;6.920;2024-02-15T02:21:34;3.53;;;1.50;;
3601;SDS011;1815;50.950;6.920;2024-02-15T02:24:04;2.20;;;1.20;;
3601;SDS011;1815;50.950;6.920;2024-02-15T02:26:46;2.03;;;1.00;;
3601;SDS011;1815;50.950;6.920;2024-02-15T02:29:13;2.40;;;1.00;;
3601;SDS011;1815;50.950;6.920;2024-02-15T02:31:41;2.57;;;1.43;;
3601;SDS011;1815;50.950;6.920;2024-02-15T02:34:07;2.13;;;1.40;;
3601;SDS011;1815;50.950;6.920;2024-02-15T02:36:34;2.63;;;1.10;;
3601;SDS011;1815;50.950;6.920;2024-02-15T02:38:59;3.23;;;1.17;;
3601;SDS011;1815;50.950;6.920;2024-02-15T02:41:29;1.73;;;1.20;;
3601;SDS011;1815;50.950;6.920;2024-02-15T02:43:55;2.10;;;0.97;;
3601;SDS011;1815;50.950;6.920;2024-02-15T02:46:21;1.50;;;1.00;;
3601;SDS011;1815;50.950;6.920;2024-02-15T02:48:47;1.87;;;1.00;;
3601;SDS011;1815;50.950;6.920;2024-02-15T02:51:13;2.10;;;1.10;;
3601;SDS011;1815;50.950;6.920;2024-02-15T02:53:38;2.80;;;1.00;;
3601;SDS011;1815;50.950;6.920;2024-02-15T02:56:04;2.43;;;1.17;;
3601;SDS011;1815;50.950;6.920;2024-02-15T02:58:30;3.30;;;1.17;;
3601;SDS011;1815;50.950;6.920;2024-02-15T03:00:56;2.60;;;0.97;;
3601;SDS011;1815;50.950;6.920;2024-02-15T03:03:26;1.83;;;0.90;;
3601;SDS011;1815;50.950;6.920;2024-02-15T03:05:51;2.00;;;1.20;;
3601;SDS011;1815;50.950;6.920;2024-02-15T03:08:19;3.90;;;0.90;;
3601;SDS011;1815;50.950;6.920;2024-02-15T03:10:45;2.30;;;1.00;;
3601;SDS011;1815;50.950;6.920;2024-02-15T03:13:12;2.27;;;1.30;;
3601;SDS011;1815;50.950;6.920;2024-02-15T03:15:37;2.30;;;1.00;;
3601;SDS011;1815;50.950;6.920;2024-02-15T03:18:03;2.57;;;1.10;;
3601;SDS011;1815;50.950;6.920;2024-02-15T03:20:32;3.03;;;1.50;;
3601;SDS011;1815;50.950;6.920;2024-02-15T03:23:00;1.50;;;0.90;;
3601;SDS011;1815;50.950;6.920;2024-02-15T03:25:27;2.80;;;1.10;;
3601;SDS011;1815;50.950;6.920;2024-02-15T03:27:57;1.90;;;0.80;;
3601;SDS011;1815;50.950;6.920;2024-02-15T03:30:27;3.10;;;1.30;;
3601;SDS011;1815;50.950;6.920;2024-02-15T03:32:56;4.20;;;1.37;;
3601;SDS011;1815;50.950;6.920;2024-02-15T03:35:22;2.27;;;1.20;;
3601;SDS011;1815;50.950;6.920;2024-02-15T03:37:49;3.97;;;0.87;;
3601;SDS011;1815;50.950;6.920;2024-02-15T03:40:19;3.87;;;1.20;;
3601;SDS011;1815;50.950;6.920;2024-02-15T03:42:46;3.30;;;1.23;;
3601;SDS011;1815;50.950;6.920;2024-02-15T03:45:12;1.80;;;0.87;;
3601;SDS011;1815;50.950;6.920;2024-02-15T03:47:38;3.70;;;1.20;;
3601;SDS011;1815;50.950;6.920;2024-02-15T03:50:07;2.47;;;1.10;;
3601;SDS011;1815;50.950;6.920;2024-02-15T03:52:35;2.67;;;1.03;;
3601;SDS011;1815;50.950;6.920;2024-02-15T03:55:01;2.37;;;1.13;;
3601;SDS011;1815;50.950;6.920;2024-02-15T03:57:27;3.30;;;1.27;;
3601;SDS011;1815;50.950;6.920;2024-02-15T03:59:54;2.13;;;0.90;;
3601;SDS011;1815;50.950;6.920;2024-02-15T04:02:22;2.50;;;1.33;;
3601;SDS011;1815;50.950;6.920;2024-02-15T04:04:52;3.00;;;1.30;;
3601;SDS011;1815;50.950;6.920;2024-02-15T04:07:19;2.33;;;0.87;;
3601;SDS011;1815;50.950;6.920;2024-02-15T04:09:46;2.00;;;1.00;;
3601;SDS011;1815;50.950;6.920;2024-02-15T04:12:12;1.60;;;0.80;;
3601;SDS011;1815;50.950;6.920;2024-02-15T04:14:39;2.37;;;1.03;;
3601;SDS011;1815;50.950;6.920;2024-02-15T04:17:06;3.00;;;1.00;;
3601;SDS011;1815;50.950;6.920;2024-02-15T04:19:32;5.30;;;1.00;;
3601;SDS011;1815;50.950;6.920;2024-02-15T04:21:58;1.70;;;0.73;;
3601;SDS011;1815;50.950;6.920;2024-02-15T04:24:26;2.17;;;0.97;;
3601;SDS011;1815;50.950;6.920;2024-02-15T04:26:52;2.80;;;1.00;;
3601;SDS011;1815;50.950;6.920;2024-02-15T04:29:18;2.77;;;0.97;;
3601;SDS011;1815;50.950;6.920;2024-02-15T04:31:45;1.90;;;1.00;;
3601;SDS011;1815;50.950;6.920;2024-02-15T04:34:15;2.30;;;0.90;;
3601;SDS011;1815;50.950;6.920;2024-02-15T04:36:43;1.83;;;0.90;;
3601;SDS011;1815;50.950;6.920;2024-02-15T04:39:15;1.43;;;0.80;;
3601;SDS011;1815;50.950;6.920;2024-02-15T04:41:49;3.87;;;0.90;;
3601;SDS011;1815;50.950;6.920;2024-02-15T04:44:18;3.80;;;0.97;;
3601;SDS011;1815;50.950;6.920;2024-02-15T04:46:52;4.73;;;1.10;;
3601;SDS011;1815;50.950;6.920;2024-02-15T04:49:18;2.10;;;1.00;;
3601;SDS011;1815;50.950;6.920;2024-02-15T04:51:48;2.07;;;0.90;;
3601;SDS011;1815;50.950;6.920;2024-02-15T04:54:14;3.07;;;0.73;;
3601;SDS011;1815;50.950;6.920;2024-02-15T04:56:40;2.37;;;0.90;;
3601;SDS011;1815;50.950;6.920;2024-02-15T04:59:06;3.30;;;0.97;;
3601;SDS011;1815;50.950;6.920;2024-02-15T05:01:42;4.00;;;1.37;;
3601;SDS011;1815;50.950;6.920;2024-02-15T05:04:11;2.23;;;1.00;;
3601;SDS011;1815;50.950;6.920;2024-02-15T05:06:38;2.63;;;0.97;;
3601;SDS011;1815;50.950;6.920;2024-02-15T05:09:05;1.93;;;1.03;;
3601;SDS011;1815;50.950;6.920;2024-02-15T05:11:38;4.27;;;0.90;;
3601;SDS011;1815;50.950;6.920;2024-02-15T05:14:07;2.00;;;1.10;;
3601;SDS011;1815;50.950;6.920;2024-02-15T05:16:35;3.37;;;1.07;;
3601;SDS011;1815;50.950;6.920;2024-02-15T05:19:07;3.40;;;1.20;;
3601;SDS011;1815;50.950;6.920;2024-02-15T05:21:35;3.07;;;1.10;;
3601;SDS011;1815;50.950;6.920;2024-02-15T05:24:00;3.57;;;1.00;;
3601;SDS011;1815;50.950;6.920;2024-02-15T05:26:28;2.33;;;0.90;;
3601;SDS011;1815;50.950;6.920;2024-02-15T05:28:53;3.20;;;1.13;;
3601;SDS011;1815;50.950;6.920;2024-02-15T05:31:19;6.00;;;1.37;;
3601;SDS011;1815;50.950;6.920;2024-02-15T05:33:47;3.13;;;1.03;;
3601;SDS011;1815;50.950;6.920;2024-02-15T05:36:13;2.63;;;0.90;;
3601;SDS011;1815;50.950;6.920;2024-02-15T05:38:39;3.73;;;1.00;;
3601;SDS011;1815;50.950;6.920;2024-02-15T05:41:06;4.40;;;0.90;;
3601;SDS011;1815;50.950;6.920;2024-02-15T05:43:34;4.43;;;1.20;;
3601;SDS011;1815;50.950;6.920;2024-02-15T05:46:03;2.80;;;1.27;;
3601;SDS011;1815;50.950;6.920;2024-02-15T05:48:29;3.73;;;1.00;;
3601;SDS011;1815;50.950;6.920;2024-02-15T05:50:56;5.67;;;1.10;;
3601;SDS011;1815;50.950;6.920;2024-02-15T05:53:23;2.57;;;1.20;;
3601;SDS011;1815;50.950;6.920;2024-02-15T05:55:49;2.73;;;1.30;;
3601;SDS011;1815;50.950;6.920;2024-02-15T05:58:15;2.40;;;0.97;;
3601;SDS011;1815;50.950;6.920;2024-02-15T06:00:42;5.03;;;1.30;;
3601;SDS011;1815;50.950;6.920;2024-02-15T06:03:15;5.20;;;1.20;;
3601;SDS011;1815;50.950;6.920;2024-02-15T06:05:42;5.30;;;1.70;;
3601;SDS011;1815;50.950;6.920;2024-02-15T06:08:09;3.77;;;1.60;;
3601;SDS011;1815;50.950;6.920;2024-02-15T06:10:37;2.97;;;1.10;;
3601;SDS011;1815;50.950;6.920;2024-02-15T06:13:03;6.67;;;1.57;;
3601;SDS011;1815;50.950;6.920;2024-02-15T06:15:29;2.43;;;1.00;;
3601;SDS011;1815;50.950;6.920;2024-02-15T06:17:55;4.03;;;1.13;;
3601;SDS011;1815;50.950;6.920;2024-02-15T06:20:22;3.37;;;1.43;;
3601;SDS011;1815;50.950;6.920;2024-02-15T06:22:48;3.13;;;1.57;;
3601;SDS011;1815;50.950;6.920;2024-02-15T06:25:14;4.33;;;1.50;;
3601;SDS011;1815;50.950;6.920;2024-02-15T06:27:45;4.80;;;1.53;;
3601;SDS011;1815;50.950;6.920;2024-02-15T06:30:11;6.33;;;1.50;;
3601;SDS011;1815;50.950;6.920;2024-02-15T06:32:59;3.30;;;1.30;;
3601;SDS011;1815;50.950;6.920;2024-02-15T06:35:43;5.27;;;1.30;;
3601;SDS011;1815;50.950;6.920;2024-02-15T06:38:27;6.07;;;1.90;;
3601;SDS011;1815;50.950;6.920;2024-02-15T06:41:12;4.50;;;1.20;;
3601;SDS011;1815;50.950;6.920;2024-02-15T06:43:38;3.00;;;1.30;;
3601;SDS011;1815;50.950;6.920;2024-02-15T06:46:07;4.40;;;1.37;;
3601;SDS011;1815;50.950;6.920;2024-02-15T06:48:33;7.63;;;1.67;;
3601;SDS011;1815;50.950;6.920;2024-02-15T06:50:59;3.43;;;1.77;;
3601;SDS011;1815;50.950;6.920;2024-02-15T06:53:26;2.93;;;1.60;;
3601;SDS011;1815;50.950;6.920;2024-02-15T06:55:52;3.63;;;1.33;;
3601;SDS011;1815;50.950;6.920;2024-02-15T06:58:17;3.10;;;1.40;;
3601;SDS011;1815;50.950;6.920;2024-02-15T07:00:43;4.27;;;1.60;;
3601;SDS011;1815;50.950;6.920;2024-02-15T07:03:09;4.00;;;1.80;;
3601;SDS011;1815;50.950;6.920;2024-02-15T07:05:36;6.23;;;1.33;;
3601;SDS011;1815;50.950;6.920;2024-02-15T07:08:07;5.10;;;1.90;;
3601;SDS011;1815;50.950;6.920;2024-02-15T07:10:33;4.40;;;1.90;;
3601;SDS011;1815;50.950;6.920;2024-02-15T07:12:58;4.43;;;1.97;;
3601;SDS011;1815;50.950;6.920;2024-02-15T07:15:26;4.80;;;1.40;;
3601;SDS011;1815;50.950;6.920;2024-02-15T07:17:52;4.17;;;1.37;;
3601;SDS011;1815;50.950;6.920;2024-02-15T07:20:19;3.83;;;1.90;;
3601;SDS011;1815;50.950;6.920;2024-02-15T07:22:48;4.50;;;1.70;;
3601;SDS011;1815;50.950;6.920;2024-02-15T07:25:13;5.50;;;1.80;;
3601;SDS011;1815;50.950;6.920;2024-02-15T07:27:39;3.10;;;1.40;;
3601;SDS011;1815;50.950;6.920;2024-02-15T07:30:05;3.67;;;1.83;;
3601;SDS011;1815;50.950;6.920;2024-02-15T07:32:33;4.67;;;1.80;;
3601;SDS011;1815;50.950;6.920;2024-02-15T07:35:00;4.33;;;1.47;;
3601;SDS011;1815;50.950;6.920;2024-02-15T07:37:26;2.63;;;1.47;;
3601;SDS011;1815;50.950;6.920;2024-02-15T07:39:54;4.23;;;2.40;;
3601;SDS011;1815;50.950;6.920;2024-02-15T07:42:20;4.50;;;1.60;;
3601;SDS011;1815;50.950;6.920;2024-02-15T07:44:50;4.27;;;2.10;;
3601;SDS011;1815;50.950;6.920;2024-02-15T07:47:18;2.90;;;1.33;;
3601;SDS011;1815;50.950;6.920;2024-02-15T07:49:47;3.53;;;1.87;;
3601;SDS011;1815;50.950;6.920;2024-02-15T07:52:12;3.50;;;1.77;;
3601;SDS011;1815;50.950;6.920;2024-02-15T07:54:41;3.70;;;2.00;;
3601;SDS011;1815;50.950;6.920;2024-02-15T07:57:07;3.17;;;1.60;;
3601;SDS011;1815;50.950;6.920;2024-02-15T07:59:34;5.90;;;1.83;;
3601;SDS011;1815;50.950;6.920;2024-02-15T08:02:01;5.90;;;1.37;;
3601;SDS011;1815;50.950;6.920;2024-02-15T08:04:27;5.10;;;1.60;;
3601;SDS011;1815;50.950;6.920;2024-02-15T08:06:54;2.63;;;1.53;;
3601;SDS011;1815;50.950;6.920;2024-02-15T08:09:20;4.27;;;1.73;;
3601;SDS011;1815;50.950;6.920;2024-02-15T08:11:49;4.33;;;1.70;;
3601;SDS011;1815;50.950;6.920;2024-02-15T08:14:16;6.30;;;2.40;;
3601;SDS011;1815;50.950;6.920;2024-02-15T08:16:42;13.43;;;2.57;;
3601;SDS011;1815;50.950;6.920;2024-02-15T08:19:07;5.63;;;2.10;;
3601;SDS011;1815;50.950;6.920;2024-02-15T08:21:34;4.20;;;2.00;;
3601;SDS011;1815;50.950;6.920;2024-02-15T08:24:02;3.73;;;1.87;;
3601;SDS011;1815;50.950;6.920;2024-02-15T08:26:38;5.10;;;2.37;;
3601;SDS011;1815;50.950;6.920;2024-02-15T08:29:05;2.73;;;2.03;;
3601;SDS011;1815;50.950;6.920;2024-02-15T08:31:34;4.70;;;2.27;;
3601;SDS011;1815;50.950;6.920;2024-02-15T08:34:03;7.73;;;2.50;;
3601;SDS011;1815;50.950;6.920;2024-02-15T08:36:35;5.70;;;2.37;;
3601;SDS011;1815;50.950;6.920;2024-02-15T08:39:01;6.63;;;2.10;;
3601;SDS011;1815;50.950;6.920;2024-02-15T08:41:29;5.17;;;1.90;;
3601;SDS011;1815;50.950;6.920;2024-02-15T08:43:54;5.40;;;2.20;;
3601;SDS011;1815;50.950;6.920;2024-02-15T08:46:23;4.33;;;2.23;;
3601;SDS011;1815;50.950;6.920;2024-02-15T08:48:50;5.10;;;2.30;;
3601;SDS011;1815;50.950;6.920;2024-02-15T08:51:16;5.77;;;2.07;;
3601;SDS011;1815;50.950;6.920;2024-02-15T08:53:43;4.50;;;2.20;;
3601;SDS011;1815;50.950;6.920;2024-02-15T08:56:08;7.97;;;2.63;;
3601;SDS011;1815;50.950;6.920;2024-02-15T08:58:35;5.10;;;2.00;;
3601;SDS011;1815;50.950;6.920;2024-02-15T09:01:01;5.30;;;2.40;;
3601;SDS011;1815;50.950;6.920;2024-02-15T09:03:28;6.73;;;2.53;;
3601;SDS011;1815;50.950;6.920;2024-02-15T09:05:54;4.60;;;2.40;;
3601;SDS011;1815;50.950;6.920;2024-02-15T09:08:19;6.93;;;2.10;;
3601;SDS011;1815;50.950;6.920;2024-02-15T09:10:49;4.67;;;2.27;;
3601;SDS011;1815;50.950;6.920;2024-02-15T09:13:15;6.17;;;3.00;;
3601;SDS011;1815;50.950;6.920;2024-02-15T09:15:41;5.70;;;2.67;;
3601;SDS011;1815;50.950;6.920;2024-02-15T09:18:07;7.87;;;2.20;;
3601;SDS011;1815;50.950;6.920;2024-02-15T09:20:36;5.67;;;2.20;;
3601;SDS011;1815;50.950;6.920;2024-02-15T09:23:04;7.40;;;2.70;;
3601;SDS011;1815;50.950;6.920;2024-02-15T09:25:34;5.83;;;2.00;;
3601;SDS011;1815;50.950;6.920;2024-02-15T09:28:03;3.03;;;1.90;;
3601;SDS011;1815;50.950;6.920;2024-02-15T09:30:29;3.97;;;1.80;;
3601;SDS011;1815;50.950;6.920;2024-02-15T09:32:56;5.37;;;1.77;;
3601;SDS011;1815;50.950;6.920;2024-02-15T09:35:22;5.93;;;1.97;;
3601;SDS011;1815;50.950;6.920;2024-02-15T09:37:48;5.60;;;2.73;;
3601;SDS011;1815;50.950;6.920;2024-02-15T09:40:14;5.87;;;1.73;;
3601;SDS011;1815;50.950;6.920;2024-02-15T09:42:45;4.07;;;1.60;;
3601;SDS011;1815;50.950;6.920;2024-02-15T09:45:12;4.07;;;2.07;;
3601;SDS011;1815;50.950;6.920;2024-02-15T09:47:40;4.83;;;1.57;;
3601;SDS011;1815;50.950;6.920;2024-02-15T09:50:07;6.43;;;2.07;;
3601;SDS011;1815;50.950;6.920;2024-02-15T09:52:36;5.17;;;2.17;;
3601;SDS011;1815;50.950;6.920;2024-02-15T09:55:09;3.33;;;1.67;;
3601;SDS011;1815;50.950;6.920;2024-02-15T09:57:39;4.23;;;1.60;;
3601;SDS011;1815;50.950;6.920;2024-02-15T10:00:07;7.43;;;1.93;;
3601;SDS011;1815;50.950;6.920;2024-02-15T10:02:36;9.97;;;2.13;;
3601;SDS011;1815;50.950;6.920;2024-02-15T10:05:05;4.80;;;1.47;;
3601;SDS011;1815;50.950;6.920;2024-02-15T10:07:32;4.80;;;1.20;;
3601;SDS011;1815;50.950;6.920;2024-02-15T10:09:58;2.67;;;1.50;;
3601;SDS011;1815;50.950;6.920;2024-02-15T10:12:39;7.37;;;1.57;;
3601;SDS011;1815;50.950;6.920;2024-02-15T10:15:05;4.83;;;1.30;;
3601;SDS011;1815;50.950;6.920;2024-02-15T10:17:32;3.03;;;1.47;;
3601;SDS011;1815;50.950;6.920;2024-02-15T10:20:03;5.23;;;1.73;;
3601;SDS011;1815;50.950;6.920;2024-02-15T10:22:30;6.17;;;2.20;;
3601;SDS011;1815;50.950;6.920;2024-02-15T10:25:12;4.30;;;2.30;;
3601;SDS011;1815;50.950;6.920;2024-02-15T10:27:42;4.17;;;1.57;;
3601;SDS011;1815;50.950;6.920;2024-02-15T10:30:14;4.80;;;1.40;;
3601;SDS011;1815;50.950;6.920;2024-02-15T10:32:43;2.90;;;1.30;;
3601;SDS011;1815;50.950;6.920;2024-02-15T10:35:10;4.80;;;1.67;;
3601;SDS011;1815;50.950;6.920;2024-02-15T10:37:40;5.33;;;2.20;;
3601;SDS011;1815;50.950;6.920;2024-02-15T10:40:07;5.03;;;1.90;;
3601;SDS011;1815;50.950;6.920;2024-02-15T10:42:34;5.33;;;2.00;;
3601;SDS011;1815;50.950;6.920;2024-02-15T10:45:04;4.10;;;2.13;;
3601;SDS011;1815;50.950;6.920;2024-02-15T10:47:37;6.80;;;1.53;;
3601;SDS011;1815;50.950;6.920;2024-02-15T10:50:06;2.83;;;1.50;;
3601;SDS011;1815;50.950;6.920;2024-02-15T10:52:32;5.60;;;1.70;;
3601;SDS011;1815;50.950;6.920;2024-02-15T10:55:03;3.50;;;1.60;;
3601;SDS011;1815;50.950;6.920;2024-02-15T10:57:33;2.33;;;1.47;;
3601;SDS011;1815;50.950;6.920;2024-02-15T11:00:03;5.57;;;1.73;;
3601;SDS011;1815;50.950;6.920;2024-02-15T11:02:42;4.50;;;2.03;;
3601;SDS011;1815;50.950;6.920;2024-02-15T11:05:14;5.77;;;1.67;;
3601;SDS011;1815;50.950;6.920;2024-02-15T11:07:46;7.33;;;1.87;;
3601;SDS011;1815;50.950;6.920;2024-02-15T11:10:12;3.97;;;1.90;;
3601;SDS011;1815;50.950;6.920;2024-02-15T11:12:42;5.27;;;1.33;;
3601;SDS011;1815;50.950;6.920;2024-02-15T11:15:09;3.93;;;1.60;;
3601;SDS011;1815;50.950;6.920;2024-02-15T11:20:02;4.10;;;1.77;;
3601;SDS011;1815;50.950;6.920;2024-02-15T11:22:35;5.20;;;1.87;;
3601;SDS011;1815;50.950;6.920;2024-02-15T11:25:02;4.20;;;1.50;;
3601;SDS011;1815;50.950;6.920;2024-02-15T11:27:37;5.30;;;2.07;;
3601;SDS011;1815;50.950;6.920;2024-02-15T11:30:07;3.87;;;1.60;;
3601;SDS011;1815;50.950;6.920;2024-02-15T11:32:41;3.40;;;2.30;;
3601;SDS011;1815;50.950;6.920;2024-02-15T11:35:19;3.60;;;1.60;;
3601;SDS011;1815;50.950;6.920;2024-02-15T11:46:28;4.80;;;1.90;;
3601;SDS011;1815;50.950;6.920;2024-02-15T11:48:57;4.97;;;2.57;;
3601;SDS011;1815;50.950;6.920;2024-02-15T11:51:34;6.70;;;3.93;;
3601;SDS011;1815;50.950;6.920;2024-02-15T11:54:10;7.30;;;2.70;;
3601;SDS011;1815;50.950;6.920;2024-02-15T11:59:09;4.20;;;2.00;;
3601;SDS011;1815;50.950;6.920;2024-02-15T12:01:43;5.13;;;1.60;;
3601;SDS011;1815;50.950;6.920;2024-02-15T12:04:28;3.57;;;1.73;;
3601;SDS011;1815;50.950;6.920;2024-02-15T12:07:16;4.87;;;2.80;;
3601;SDS011;1815;50.950;6.920;2024-02-15T12:10:00;3.60;;;1.70;;
3601;SDS011;1815;50.950;6.920;2024-02-15T12:12:51;4.20;;;1.90;;
3601;SDS011;1815;50.950;6.920;2024-02-15T12:15:36;6.40;;;1.83;;
3601;SDS011;1815;50.950;6.920;2024-02-15T12:18:20;5.30;;;2.23;;
3601;SDS011;1815;50.950;6.920;2024-02-15T12:21:07;6.70;;;4.03;;
3601;SDS011;1815;50.950;6.920;2024-02-15T12:23:37;8.03;;;5.33;;
3601;SDS011;1815;50.950;6.920;2024-02-15T12:26:03;8.50;;;4.30;;
3601;SDS011;1815;50.950;6.920;2024-02-15T12:28:30;7.30;;;4.50;;
3601;SDS011;1815;50.950;6.920;2024-02-15T12:30:56;5.67;;;2.87;;
3601;SDS011;1815;50.950;6.920;2024-02-15T12:33:24;6.10;;;2.27;;
3601;SDS011;1815;50.950;6.920;2024-02-15T12:35:52;3.70;;;1.90;;
3601;SDS011;1815;50.950;6.920;2024-02-15T12:38:32;7.10;;;1.70;;
3601;SDS011;1815;50.950;6.920;2024-02-15T12:41:18;6.17;;;1.97;;
3601;SDS011;1815;50.950;6.920;2024-02-15T12:43:45;3.50;;;1.30;;
3601;SDS011;1815;50.950;6.920;2024-02-15T12:46:12;1.90;;;1.27;;
3601;SDS011;1815;50.950;6.920;2024-02-15T12:48:42;2.67;;;1.10;;
3601;SDS011;1815;50.950;6.920;2024-02-15T12:51:15;3.13;;;1.73;;
3601;SDS011;1815;50.950;6.920;2024-02-15T12:53:41;4.43;;;1.50;;
3601;SDS011;1815;50.950;6.920;2024-02-15T12:56:07;6.33;;;3.20;;
3601;SDS011;1815;50.950;6.920;2024-02-15T12:58:34;5.23;;;2.80;;
3601;SDS011;1815;50.950;6.920;2024-02-15T13:01:00;5.90;;;2.67;;
3601;SDS011;1815;50.950;6.920;2024-02-15T13:03:27;4.63;;;2.33;;
3601;SDS011;1815;50.950;6.920;2024-02-15T13:05:52;6.93;;;1.80;;
3601;SDS011;1815;50.950;6.920;2024-02-15T13:08:18;4.60;;;1.60;;
3601;SDS011;1815;50.950;6.920;2024-02-15T13:10:45;3.50;;;2.00;;
3601;SDS011;1815;50.950;6.920;2024-02-15T13:13:11;4.13;;;1.90;;
3601;SDS011;1815;50.950;6.920;2024-02-15T13:15:39;3.40;;;1.40;;
3601;SDS011;1815;50.950;6.920;2024-02-15T13:18:05;4.47;;;2.23;;
3601;SDS011;1815;50.950;6.920;2024-02-15T13:20:35;3.80;;;2.13;;
3601;SDS011;1815;50.950;6.920;2024-02-15T13:23:06;7.87;;;2.73;;
3601;SDS011;1815;50.950;6.920;2024-02-15T13:25:34;5.73;;;2.70;;
3601;SDS011;1815;50.950;6.920;2024-02-15T13:28:08;4.83;;;2.00;;
3601;SDS011;1815;50.950;6.920;2024-02-15T13:30:38;2.53;;;1.50;;
3601;SDS011;1815;50.950;6.920;2024-02-15T13:33:04;2.10;;;1.10;;
3601;SDS011;1815;50.950;6.920;2024-02-15T13:35:31;4.23;;;1.53;;
3601;SDS011;1815;50.950;6.920;2024-02-15T13:37:57;3.00;;;1.23;;
3601;SDS011;1815;50.950;6.920;2024-02-15T13:40:24;4.43;;;1.50;;
3601;SDS011;1815;50.950;6.920;2024-02-15T13:42:51;2.97;;;1.10;;
3601;SDS011;1815;50.950;6.920;2024-02-15T13:45:19;4.00;;;1.43;;
3601;SDS011;1815;50.950;6.920;2024-02-15T13:47:49;4.00;;;1.10;;
3601;SDS011;1815;50.950;6.920;2024-02-15T13:50:18;6.13;;;1.20;;
3601;SDS011;1815;50.950;6.920;2024-02-15T13:52:44;4.70;;;1.60;;
3601;SDS011;1815;50.950;6.920;2024-02-15T13:55:17;3.70;;;1.23;;
3601;SDS011;1815;50.950;6.920;2024-02-15T13:57:47;2.93;;;1.43;;
3601;SDS011;1815;50.950;6.920;2024-02-15T14:00:14;2.47;;;1.40;;
3601;SDS011;1815;50.950;6.920;2024-02-15T14:02:52;3.20;;;1.20;;
3601;SDS011;1815;50.950;6.920;2024-02-15T14:05:19;4.20;;;1.37;;
3601;SDS011;1815;50.950;6.920;2024-02-15T14:07:55;2.80;;;1.30;;
3601;SDS011;1815;50.950;6.920;2024-02-15T14:10:22;7.77;;;1.63;;
3601;SDS011;1815;50.950;6.920;2024-02-15T14:12:49;2.73;;;1.23;;
3601;SDS011;1815;50.950;6.920;2024-02-15T14:15:26;3.80;;;1.57;;
3601;SDS011;1815;50.950;6.920;2024-02-15T14:17:53;3.17;;;1.30;;
3601;SDS011;1815;50.950;6.920;2024-02-15T14:20:18;2.50;;;1.10;;
3601;SDS011;1815;50.950;6.920;2024-02-15T14:22:46;2.60;;;1.10;;
3601;SDS011;1815;50.950;6.920;2024-02-15T14:25:21;2.63;;;1.07;;
3601;SDS011;1815;50.950;6.920;2024-02-15T14:27:47;7.07;;;2.70;;
3601;SDS011;1815;50.950;6.920;2024-02-15T14:30:13;7.03;;;2.93;;
3601;SDS011;1815;50.950;6.920;2024-02-15T14:32:57;4.93;;;3.00;;
3601;SDS011;1815;50.950;6.920;2024-02-15T14:38:09;2.83;;;1.00;;
3601;SDS011;1815;50.950;6.920;2024-02-15T14:40:36;2.17;;;0.80;;
3601;SDS011;1815;50.950;6.920;2024-02-15T14:43:02;4.60;;;0.90;;
3601;SDS011;1815;50.950;6.920;2024-02-15T14:45:34;2.80;;;0.90;;
3601;SDS011;1815;50.950;6.920;2024-02-15T14:48:03;3.17;;;1.23;;
3601;SDS011;1815;50.950;6.920;2024-02-15T14:50:29;2.63;;;0.93;;
3601;SDS011;1815;50.950;6.920;2024-02-15T14:52:55;4.43;;;1.00;;
3601;SDS011;1815;50.950;6.920;2024-02-15T14:55:21;2.30;;;0.90;;
3601;SDS011;1815;50.950;6.920;2024-02-15T14:57:47;6.37;;;1.17;;
3601;SDS011;1815;50.950;6.920;2024-02-15T15:00:14;3.67;;;0.90;;
3601;SDS011;1815;50.950;6.920;2024-02-15T15:02:46;2.87;;;1.47;;
3601;SDS011;1815;50.950;6.920;2024-02-15T15:05:13;3.40;;;1.67;;
3601;SDS011;1815;50.950;6.920;2024-02-15T15:07:57;4.70;;;1.40;;
3601;SDS011;1815;50.950;6.920;2024-02-15T15:10:43;4.37;;;1.23;;
3601;SDS011;1815;50.950;6.920;2024-02-15T15:13:29;2.47;;;1.20;;
3601;SDS011;1815;50.950;6.920;2024-02-15T15:15:55;3.27;;;1.27;;
3601;SDS011;1815;50.950;6.920;2024-02-15T15:18:21;3.70;;;1.00;;
3601;SDS011;1815;50.950;6.920;2024-02-15T15:20:46;4.57;;;1.20;;
3601;SDS011;1815;50.950;6.920;2024-02-15T15:23:12;3.43;;;1.77;;
3601;SDS011;1815;50.950;6.920;2024-02-15T15:25:39;4.03;;;1.80;;
3601;SDS011;1815;50.950;6.920;2024-02-15T15:28:05;3.60;;;1.17;;
3601;SDS011;1815;50.950;6.920;2024-02-15T15:30:31;3.70;;;1.20;;
3601;SDS011;1815;50.950;6.920;2024-02-15T15:32:57;6.80;;;2.00;;
3601;SDS011;1815;50.950;6.920;2024-02-15T15:35:25;2.70;;;1.50;;
3601;SDS011;1815;50.950;6.920;2024-02-15T15:37:52;4.87;;;2.27;;
3601;SDS011;1815;50.950;6.920;2024-02-15T15:40:18;5.50;;;2.63;;